createdAt,value
2019-02-02T00:00:09.346Z,93000
2019-02-02T00:01:18.900Z,93010
2019-02-02T00:02:28.434Z,93004
2019-02-02T00:03:37.983Z,93002
2019-02-02T00:04:47.525Z,92996
2019-02-02T00:05:57.048Z,92989
2019-02-02T00:07:06.641Z,92982
2019-02-02T00:08:16.223Z,92987
2019-02-02T00:09:25.744Z,92996
2019-02-02T00:10:35.256Z,92997
2019-02-02T00:11:44.801Z,93000
2019-02-02T00:12:54.321Z,93002
2019-02-02T00:14:04.852Z,93001
2019-02-02T00:15:14.410Z,93005
2019-02-02T00:16:23.959Z,92996
2019-02-02T00:17:33.504Z,93001
2019-02-02T00:18:43.037Z,92996
2019-02-02T00:19:52.563Z,92999
2019-02-02T00:21:02.113Z,92992
2019-02-02T00:22:11.661Z,92985
2019-02-02T00:23:21.308Z,92984
2019-02-02T00:24:30.896Z,92984
2019-02-02T00:25:40.407Z,92982
2019-02-02T00:26:49.941Z,92986
2019-02-02T00:28:00.434Z,92992
2019-02-02T00:29:09.985Z,92993
2019-02-02T00:30:19.526Z,92998
2019-02-02T00:31:29.083Z,93001
2019-02-02T00:32:38.613Z,93002
2019-02-02T00:33:48.159Z,93005
2019-02-02T00:34:57.666Z,93002
2019-02-02T00:36:07.224Z,93000
2019-02-02T00:37:16.773Z,93003
2019-02-02T00:38:26.292Z,93011
2019-02-02T00:39:35.826Z,93012
2019-02-02T00:40:45.350Z,93006
2019-02-02T00:41:54.906Z,93005
2019-02-02T00:43:04.424Z,92998
2019-02-02T00:44:14.049Z,93000
2019-02-02T00:45:23.493Z,92994
2019-02-02T00:46:34.044Z,92998
2019-02-02T00:47:43.578Z,92999
2019-02-02T00:48:53.174Z,93002
2019-02-02T00:50:02.620Z,92998
2019-02-02T00:51:12.174Z,92997
2019-02-02T00:52:21.740Z,92994
2019-02-02T00:53:31.260Z,92998
2019-02-02T00:54:40.787Z,92998
2019-02-02T00:55:50.304Z,93005
2019-02-02T00:56:59.856Z,93000
2019-02-02T00:58:10.372Z,93006
2019-02-02T00:59:19.900Z,92995
2019-02-02T01:00:29.424Z,92995
2019-02-02T01:01:38.962Z,92994
2019-02-02T01:02:48.527Z,93001
2019-02-02T01:03:58.072Z,92991
2019-02-02T01:05:07.606Z,92990
2019-02-02T01:06:17.175Z,92983
2019-02-02T01:07:26.738Z,92983
2019-02-02T01:08:36.300Z,92987
2019-02-02T01:09:45.815Z,92986
2019-02-02T01:10:55.346Z,92985
2019-02-02T01:12:04.890Z,92979
2019-02-02T01:13:14.432Z,92978
2019-02-02T01:14:23.954Z,92977
2019-02-02T01:15:33.483Z,92980
2019-02-02T01:16:43.023Z,92979
2019-02-02T01:17:52.593Z,92986
2019-02-02T01:19:02.121Z,92990
2019-02-02T01:20:11.667Z,92985
2019-02-02T01:21:21.219Z,92982
2019-02-02T01:22:30.766Z,92987
2019-02-02T01:23:40.325Z,92990
2019-02-02T01:24:49.833Z,92989
2019-02-02T01:25:59.337Z,92995
2019-02-02T01:27:08.887Z,92985
2019-02-02T01:28:18.444Z,92992
2019-02-02T01:29:27.972Z,92996
2019-02-02T01:30:37.494Z,93002
2019-02-02T01:31:47.023Z,93003
2019-02-02T01:32:56.581Z,93003
2019-02-02T01:34:06.120Z,93003
2019-02-02T01:35:15.654Z,93003
2019-02-02T01:36:25.170Z,93002
2019-02-02T01:37:34.718Z,92998
2019-02-02T01:38:44.244Z,92999
2019-02-02T01:39:53.777Z,92988
2019-02-02T01:41:03.307Z,92994
2019-02-02T01:42:12.861Z,92997
2019-02-02T01:43:22.368Z,92992
2019-02-02T01:44:31.877Z,92992
2019-02-02T01:45:41.414Z,92987
2019-02-02T01:46:50.936Z,92983
2019-02-02T01:48:00.500Z,92976
2019-02-02T01:49:10.027Z,92968
2019-02-02T01:50:19.539Z,92975
2019-02-02T01:51:29.100Z,92966
2019-02-02T01:52:38.641Z,92960
2019-02-02T01:53:48.168Z,92957
2019-02-02T01:54:57.695Z,92966
2019-02-02T01:56:07.227Z,92969
2019-02-02T01:57:16.812Z,92967
2019-02-02T01:58:26.329Z,92967
2019-02-02T01:59:35.850Z,92971
2019-02-02T02:00:45.376Z,92969
2019-02-02T02:01:54.914Z,92970
2019-02-02T02:03:04.446Z,92965
2019-02-02T02:04:13.974Z,92967
2019-02-02T02:05:23.482Z,92969
2019-02-02T02:06:33.043Z,92969
2019-02-02T02:07:42.738Z,92970
2019-02-02T02:08:52.259Z,92965
2019-02-02T02:10:01.788Z,92978
2019-02-02T02:11:11.307Z,92977
2019-02-02T02:12:20.852Z,92975
2019-02-02T02:13:30.394Z,92985
2019-02-02T02:14:39.907Z,92977
2019-02-02T02:15:49.424Z,92983
2019-02-02T02:16:58.962Z,92982
2019-02-02T02:18:08.518Z,92980
2019-02-02T02:19:18.067Z,92977
2019-02-02T02:20:27.577Z,92980
2019-02-02T02:21:37.087Z,92978
2019-02-02T02:22:46.659Z,92975
2019-02-02T02:23:56.215Z,92972
2019-02-02T02:25:05.756Z,92970
2019-02-02T02:26:15.280Z,92968
2019-02-02T02:27:24.825Z,92966
2019-02-02T02:28:34.423Z,92966
2019-02-02T02:29:43.935Z,92959
2019-02-02T02:30:53.475Z,92964
2019-02-02T02:32:03.000Z,92964
2019-02-02T02:33:12.541Z,92964
2019-02-02T02:34:22.042Z,92964
2019-02-02T02:35:31.566Z,92966
2019-02-02T02:36:41.142Z,92970
2019-02-02T02:37:50.708Z,92969
2019-02-02T02:39:00.265Z,92966
2019-02-02T02:40:09.796Z,92970
2019-02-02T02:41:19.345Z,92965
2019-02-02T02:42:28.880Z,92963
2019-02-02T02:43:38.447Z,92956
2019-02-02T02:44:48.009Z,92948
2019-02-02T02:45:57.529Z,92950
2019-02-02T02:47:07.157Z,92952
2019-02-02T02:48:16.723Z,92965
2019-02-02T02:49:26.241Z,92963
2019-02-02T02:50:35.759Z,92963
2019-02-02T02:51:45.306Z,92962
2019-02-02T02:52:54.869Z,92966
2019-02-02T02:54:04.436Z,92968
2019-02-02T02:55:13.979Z,92970
2019-02-02T02:56:23.518Z,92976
2019-02-02T02:57:33.048Z,92983
2019-02-02T02:58:42.624Z,92987
2019-02-02T02:59:52.197Z,92985
2019-02-02T03:01:01.731Z,92980
2019-02-02T03:02:11.264Z,92981
2019-02-02T03:03:20.802Z,92985
2019-02-02T03:04:31.319Z,92981
2019-02-02T03:05:40.831Z,92983
2019-02-02T03:06:50.360Z,92987
2019-02-02T03:07:59.910Z,92987
2019-02-02T03:09:09.445Z,92986
2019-02-02T03:10:18.986Z,92988
2019-02-02T03:11:28.506Z,92983
2019-02-02T03:12:38.048Z,92982
2019-02-02T03:13:47.588Z,92974
2019-02-02T03:14:57.138Z,92973
2019-02-02T03:16:06.647Z,92971
2019-02-02T03:17:16.270Z,92968
2019-02-02T03:18:25.847Z,92971
2019-02-02T03:19:35.366Z,92974
2019-02-02T03:20:44.915Z,92981
2019-02-02T03:21:54.481Z,92984
2019-02-02T03:23:04.011Z,92987
2019-02-02T03:24:13.541Z,92994
2019-02-02T03:25:23.071Z,93000
2019-02-02T03:26:32.604Z,92992
2019-02-02T03:27:42.141Z,92994
2019-02-02T03:28:53.301Z,92994
2019-02-02T03:30:01.243Z,92995
2019-02-02T03:31:10.739Z,92997
2019-02-02T03:32:20.273Z,92992
2019-02-02T03:33:29.826Z,92995
2019-02-02T03:34:39.359Z,92994
2019-02-02T03:35:48.890Z,92992
2019-02-02T03:36:58.436Z,92997
2019-02-02T03:38:07.974Z,92998
2019-02-02T03:39:17.587Z,92997
2019-02-02T03:40:27.105Z,93007
2019-02-02T03:41:36.628Z,93008
2019-02-02T03:42:46.253Z,93010
2019-02-02T03:43:55.790Z,93013
2019-02-02T03:45:05.304Z,93011
2019-02-02T03:46:14.840Z,93013
2019-02-02T03:47:24.373Z,93009
2019-02-02T03:48:33.931Z,93010
2019-02-02T03:49:43.465Z,93008
2019-02-02T03:50:52.980Z,93017
2019-02-02T03:52:02.506Z,93013
2019-02-02T03:53:12.045Z,93012
2019-02-02T03:54:21.604Z,93010
2019-02-02T03:55:31.133Z,93011
2019-02-02T03:56:40.683Z,93007
2019-02-02T03:57:50.198Z,93001
2019-02-02T03:59:06.351Z,93006
2019-02-02T04:00:10.261Z,93010
2019-02-02T04:01:19.762Z,93013
2019-02-02T04:02:29.299Z,93015
2019-02-02T04:03:38.900Z,93013
2019-02-02T04:04:48.444Z,93021
2019-02-02T04:05:57.977Z,93020
2019-02-02T04:07:07.495Z,93024
2019-02-02T04:08:17.044Z,93027
2019-02-02T04:09:26.598Z,93023
2019-02-02T04:10:36.118Z,93025
2019-02-02T04:11:45.838Z,93031
2019-02-02T04:12:55.204Z,93032
2019-02-02T04:14:04.771Z,93033
2019-02-02T04:15:14.329Z,93033
2019-02-02T04:16:23.862Z,93036
2019-02-02T04:17:33.397Z,93033
2019-02-02T04:18:42.943Z,93030
2019-02-02T04:19:52.489Z,93036
2019-02-02T04:21:02.002Z,93041
2019-02-02T04:22:11.518Z,93039
2019-02-02T04:23:21.047Z,93039
2019-02-02T04:24:30.596Z,93037
2019-02-02T04:25:40.128Z,93034
2019-02-02T04:26:49.665Z,93033
2019-02-02T04:27:59.183Z,93036
2019-02-02T04:29:17.473Z,93038
2019-02-02T04:30:19.211Z,93032
2019-02-02T04:31:28.767Z,93032
2019-02-02T04:32:38.333Z,93033
2019-02-02T04:33:47.895Z,93030
2019-02-02T04:34:57.446Z,93027
2019-02-02T04:36:06.988Z,93027
2019-02-02T04:37:16.502Z,93024
2019-02-02T04:38:26.064Z,93022
2019-02-02T04:39:35.659Z,93027
2019-02-02T04:40:45.177Z,93027
2019-02-02T04:41:54.709Z,93030
2019-02-02T04:43:04.233Z,93032
2019-02-02T04:44:13.755Z,93036
2019-02-02T04:45:23.310Z,93031
2019-02-02T04:46:32.830Z,93035
2019-02-02T04:47:42.509Z,93043
2019-02-02T04:48:52.044Z,93043
2019-02-02T04:50:01.631Z,93045
2019-02-02T04:51:11.152Z,93043
2019-02-02T04:52:20.660Z,93043
2019-02-02T04:53:30.182Z,93051
2019-02-02T04:54:39.722Z,93041
2019-02-02T04:55:49.304Z,93036
2019-02-02T04:56:58.869Z,93029
2019-02-02T04:58:08.477Z,93019
2019-02-02T04:59:28.769Z,93019
2019-02-02T05:00:28.540Z,93016
2019-02-02T05:01:38.118Z,93029
2019-02-02T05:02:47.675Z,93041
2019-02-02T05:03:57.202Z,93045
2019-02-02T05:05:06.762Z,93047
2019-02-02T05:06:16.286Z,93046
2019-02-02T05:07:25.808Z,93044
2019-02-02T05:08:35.353Z,93047
2019-02-02T05:09:44.961Z,93047
2019-02-02T05:10:54.506Z,93046
2019-02-02T05:12:04.037Z,93050
2019-02-02T05:13:13.567Z,93048
2019-02-02T05:14:23.095Z,93055
2019-02-02T05:15:32.636Z,93055
2019-02-02T05:16:42.200Z,93054
2019-02-02T05:17:51.763Z,93053
2019-02-02T05:19:01.350Z,93052
2019-02-02T05:20:10.917Z,93044
2019-02-02T05:21:20.460Z,93051
2019-02-02T05:22:29.987Z,93058
2019-02-02T05:23:39.543Z,93057
2019-02-02T05:24:49.088Z,93059
2019-02-02T05:25:58.685Z,93060
2019-02-02T05:27:08.252Z,93058
2019-02-02T05:28:17.786Z,93060
2019-02-02T05:29:27.440Z,93063
2019-02-02T05:30:37.905Z,93055
2019-02-02T05:31:47.540Z,93054
2019-02-02T05:32:57.078Z,93049
2019-02-02T05:34:06.660Z,93053
2019-02-02T05:35:16.165Z,93051
2019-02-02T05:36:25.711Z,93055
2019-02-02T05:37:35.317Z,93050
2019-02-02T05:38:44.879Z,93051
2019-02-02T05:39:54.412Z,93058
2019-02-02T05:41:03.938Z,93054
2019-02-02T05:42:13.806Z,93047
2019-02-02T05:43:23.332Z,93057
2019-02-02T05:44:32.845Z,93060
2019-02-02T05:45:42.374Z,93070
2019-02-02T05:46:51.935Z,93070
2019-02-02T05:48:01.470Z,93067
2019-02-02T05:49:11.008Z,93069
2019-02-02T05:50:20.596Z,93074
2019-02-02T05:51:30.099Z,93077
2019-02-02T05:52:39.709Z,93077
2019-02-02T05:53:49.257Z,93084
2019-02-02T05:54:58.790Z,93087
2019-02-02T05:56:08.314Z,93091
2019-02-02T05:57:17.907Z,93093
2019-02-02T05:58:27.447Z,93093
2019-02-02T05:59:36.978Z,93102
2019-02-02T06:00:47.559Z,93103
2019-02-02T06:01:57.077Z,93113
2019-02-02T06:03:06.742Z,93115
2019-02-02T06:04:16.235Z,93115
2019-02-02T06:05:25.763Z,93112
2019-02-02T06:06:35.300Z,93112
2019-02-02T06:07:44.878Z,93126
2019-02-02T06:08:54.411Z,93130
2019-02-02T06:10:04.010Z,93137
2019-02-02T06:11:14.034Z,93136
2019-02-02T06:12:23.581Z,93141
2019-02-02T06:13:33.119Z,93142
2019-02-02T06:14:42.642Z,93140
2019-02-02T06:15:52.176Z,93144
2019-02-02T06:17:01.732Z,93150
2019-02-02T06:18:11.269Z,93157
2019-02-02T06:19:20.805Z,93156
2019-02-02T06:20:30.367Z,93157
2019-02-02T06:21:39.908Z,93152
2019-02-02T06:22:49.451Z,93152
2019-02-02T06:23:58.996Z,93152
2019-02-02T06:25:08.515Z,93154
2019-02-02T06:26:18.060Z,93157
2019-02-02T06:27:27.640Z,93154
2019-02-02T06:28:37.208Z,93161
2019-02-02T06:29:46.759Z,93157
2019-02-02T06:30:59.910Z,93162
2019-02-02T06:32:11.651Z,93158
2019-02-02T06:33:16.306Z,93158
2019-02-02T06:34:25.887Z,93162
2019-02-02T06:35:35.406Z,93167
2019-02-02T06:36:44.935Z,93170
2019-02-02T06:37:54.511Z,93174
2019-02-02T06:39:04.022Z,93182
2019-02-02T06:40:13.551Z,93182
2019-02-02T06:41:23.071Z,93186
2019-02-02T06:42:32.662Z,93186
2019-02-02T06:43:42.186Z,93186
2019-02-02T06:44:51.747Z,93184
2019-02-02T06:46:01.300Z,93193
2019-02-02T06:47:10.830Z,93191
2019-02-02T06:48:20.371Z,93195
2019-02-02T06:49:29.898Z,93198
2019-02-02T06:50:39.449Z,93203
2019-02-02T06:51:48.956Z,93199
2019-02-02T06:52:58.490Z,93199
2019-02-02T06:54:08.139Z,93198
2019-02-02T06:55:17.677Z,93197
2019-02-02T06:56:27.242Z,93196
2019-02-02T06:57:36.794Z,93198
2019-02-02T06:58:46.361Z,93204
2019-02-02T06:59:55.902Z,93199
2019-02-02T07:01:05.460Z,93202
2019-02-02T07:02:15.085Z,93195
2019-02-02T07:03:24.519Z,93209
2019-02-02T07:04:34.049Z,93216
2019-02-02T07:05:43.583Z,93222
2019-02-02T07:06:53.152Z,93226
2019-02-02T07:08:02.732Z,93220
2019-02-02T07:09:12.264Z,93220
2019-02-02T07:10:21.786Z,93219
2019-02-02T07:11:31.355Z,93219
2019-02-02T07:12:40.960Z,93223
2019-02-02T07:13:50.545Z,93226
2019-02-02T07:15:00.180Z,93228
2019-02-02T07:16:09.663Z,93235
2019-02-02T07:17:19.264Z,93233
2019-02-02T07:18:28.772Z,93235
2019-02-02T07:19:38.333Z,93237
2019-02-02T07:20:47.955Z,93235
2019-02-02T07:21:57.470Z,93234
2019-02-02T07:23:07.030Z,93225
2019-02-02T07:24:16.610Z,93224
2019-02-02T07:25:26.159Z,93230
2019-02-02T07:26:35.686Z,93227
2019-02-02T07:27:45.237Z,93235
2019-02-02T07:28:54.794Z,93238
2019-02-02T07:30:05.124Z,93243
2019-02-02T07:31:13.894Z,93241
2019-02-02T07:32:23.466Z,93249
2019-02-02T07:33:33.002Z,93237
2019-02-02T07:34:42.533Z,93247
2019-02-02T07:35:53.951Z,93245
2019-02-02T07:37:01.686Z,93243
2019-02-02T07:38:11.205Z,93248
2019-02-02T07:39:20.773Z,93249
2019-02-02T07:40:30.330Z,93246
2019-02-02T07:41:41.152Z,93251
2019-02-02T07:42:49.504Z,93247
2019-02-02T07:43:59.078Z,93250
2019-02-02T07:45:08.579Z,93248
2019-02-02T07:46:18.136Z,93247
2019-02-02T07:47:27.914Z,93255
2019-02-02T07:48:37.463Z,93256
2019-02-02T07:49:47.016Z,93258
2019-02-02T07:50:57.589Z,93254
2019-02-02T07:52:07.132Z,93252
2019-02-02T07:53:16.694Z,93250
2019-02-02T07:54:26.264Z,93247
2019-02-02T07:55:36.792Z,93245
2019-02-02T07:56:46.324Z,93240
2019-02-02T07:57:55.853Z,93236
2019-02-02T07:59:05.425Z,93232
2019-02-02T08:00:15.901Z,93223
2019-02-02T08:01:24.471Z,93221
2019-02-02T08:02:34.005Z,93227
2019-02-02T08:03:43.617Z,93231
2019-02-02T08:04:53.141Z,93241
2019-02-02T08:06:02.699Z,93255
2019-02-02T08:07:12.221Z,93264
2019-02-02T08:08:22.788Z,93275
2019-02-02T08:09:32.331Z,93281
2019-02-02T08:10:41.863Z,93292
2019-02-02T08:11:51.389Z,93293
2019-02-02T08:13:01.008Z,93296
2019-02-02T08:14:11.443Z,93295
2019-02-02T08:15:20.121Z,93309
2019-02-02T08:16:29.654Z,93308
2019-02-02T08:17:39.167Z,93308
2019-02-02T08:18:48.709Z,93309
2019-02-02T08:19:58.293Z,93316
2019-02-02T08:21:07.826Z,93319
2019-02-02T08:22:17.486Z,93326
2019-02-02T08:23:27.037Z,93331
2019-02-02T08:24:38.615Z,93343
2019-02-02T08:25:46.126Z,93346
2019-02-02T08:26:55.678Z,93357
2019-02-02T08:28:05.206Z,93356
2019-02-02T08:29:14.794Z,93356
2019-02-02T08:30:24.425Z,93361
2019-02-02T08:31:33.970Z,93363
2019-02-02T08:32:43.571Z,93366
2019-02-02T08:33:53.148Z,93371
2019-02-02T08:35:02.700Z,93378
2019-02-02T08:36:12.229Z,93374
2019-02-02T08:37:21.891Z,93369
2019-02-02T08:38:31.531Z,93367
2019-02-02T08:39:41.114Z,93364
2019-02-02T08:40:50.678Z,93370
2019-02-02T08:42:00.217Z,93368
2019-02-02T08:43:09.759Z,93369
2019-02-02T08:44:19.329Z,93368
2019-02-02T08:45:28.955Z,93363
2019-02-02T08:46:38.498Z,93361
2019-02-02T08:47:48.023Z,93358
2019-02-02T08:48:57.601Z,93348
2019-02-02T08:50:07.248Z,93343
2019-02-02T08:51:16.770Z,93339
2019-02-02T08:52:26.348Z,93339
2019-02-02T08:53:35.985Z,93337
2019-02-02T08:54:45.522Z,93331
2019-02-02T08:55:55.099Z,93332
2019-02-02T08:57:04.640Z,93333
2019-02-02T08:58:14.285Z,93341
2019-02-02T08:59:23.653Z,93338
2019-02-02T09:00:33.221Z,93345
2019-02-02T09:01:42.787Z,93348
2019-02-02T09:02:52.348Z,93347
2019-02-02T09:04:01.829Z,93340
2019-02-02T09:05:11.365Z,93335
2019-02-02T09:06:20.899Z,93333
2019-02-02T09:07:31.373Z,93336
2019-02-02T09:08:40.894Z,93344
2019-02-02T09:09:50.457Z,93350
2019-02-02T09:10:59.988Z,93357
2019-02-02T09:12:09.509Z,93360
2019-02-02T09:13:19.051Z,93365
2019-02-02T09:14:28.574Z,93363
2019-02-02T09:15:38.099Z,93359
2019-02-02T09:16:47.610Z,93360
2019-02-02T09:17:57.123Z,93374
2019-02-02T09:19:06.634Z,93374
2019-02-02T09:20:16.206Z,93382
2019-02-02T09:21:25.753Z,93387
2019-02-02T09:22:35.350Z,93391
2019-02-02T09:23:44.869Z,93389
2019-02-02T09:24:54.406Z,93386
2019-02-02T09:26:03.947Z,93391
2019-02-02T09:27:13.449Z,93397
2019-02-02T09:28:22.977Z,93408
2019-02-02T09:29:32.529Z,93416
2019-02-02T09:30:42.237Z,93421
2019-02-02T09:31:51.669Z,93420
2019-02-02T09:33:01.199Z,93421
2019-02-02T09:34:10.732Z,93426
2019-02-02T09:35:20.283Z,93432
2019-02-02T09:36:29.807Z,93441
2019-02-02T09:37:39.304Z,93440
2019-02-02T09:38:48.836Z,93439
2019-02-02T09:39:58.420Z,93440
2019-02-02T09:41:07.947Z,93436
2019-02-02T09:42:17.467Z,93437
2019-02-02T09:43:26.989Z,93433
2019-02-02T09:44:36.551Z,93431
2019-02-02T09:45:46.131Z,93429
2019-02-02T09:46:55.641Z,93436
2019-02-02T09:48:05.145Z,93440
2019-02-02T09:49:14.656Z,93447
2019-02-02T09:50:24.210Z,93447
2019-02-02T09:51:33.743Z,93451
2019-02-02T09:52:43.256Z,93448
2019-02-02T09:53:53.544Z,93453
2019-02-02T09:55:02.334Z,93457
2019-02-02T09:56:12.836Z,93466
2019-02-02T09:57:22.347Z,93474
2019-02-02T09:58:31.835Z,93473
2019-02-02T09:59:41.361Z,93473
2019-02-02T10:00:50.937Z,93477
2019-02-02T10:02:00.530Z,93476
2019-02-02T10:03:10.061Z,93475
2019-02-02T10:04:19.646Z,93472
2019-02-02T10:05:29.243Z,93478
2019-02-02T10:06:38.862Z,93474
2019-02-02T10:07:48.386Z,93480
2019-02-02T10:08:58.033Z,93484
2019-02-02T10:10:07.930Z,93489
2019-02-02T10:11:18.229Z,93480
2019-02-02T10:12:27.970Z,93482
2019-02-02T10:13:37.526Z,93482
2019-02-02T10:14:47.094Z,93477
2019-02-02T10:15:56.688Z,93477
2019-02-02T10:17:06.227Z,93474
2019-02-02T10:18:15.782Z,93479
2019-02-02T10:19:25.334Z,93475
2019-02-02T10:20:34.858Z,93480
2019-02-02T10:21:44.415Z,93478
2019-02-02T10:22:53.934Z,93481
2019-02-02T10:24:03.509Z,93489
2019-02-02T10:25:13.096Z,93492
2019-02-02T10:26:22.655Z,93490
2019-02-02T10:27:32.203Z,93493
2019-02-02T10:28:41.747Z,93498
2019-02-02T10:29:51.361Z,93503
2019-02-02T10:31:00.967Z,93497
2019-02-02T10:32:10.527Z,93493
2019-02-02T10:33:20.064Z,93493
2019-02-02T10:34:29.635Z,93498
2019-02-02T10:35:39.169Z,93495
2019-02-02T10:36:48.761Z,93492
2019-02-02T10:37:58.333Z,93492
2019-02-02T10:39:07.880Z,93489
2019-02-02T10:40:17.501Z,93489
2019-02-02T10:41:27.024Z,93488
2019-02-02T10:42:36.570Z,93485
2019-02-02T10:43:46.142Z,93489
2019-02-02T10:44:55.803Z,93496
2019-02-02T10:46:05.427Z,93507
2019-02-02T10:47:14.989Z,93513
2019-02-02T10:48:24.548Z,93519
2019-02-02T10:49:34.150Z,93516
2019-02-02T10:50:43.718Z,93518
2019-02-02T10:51:53.386Z,93513
2019-02-02T10:53:02.937Z,93509
2019-02-02T10:54:12.549Z,93510
2019-02-02T10:55:22.187Z,93512
2019-02-02T10:56:31.738Z,93516
2019-02-02T10:57:42.280Z,93517
2019-02-02T10:58:51.811Z,93521
2019-02-02T11:00:01.397Z,93524
2019-02-02T11:01:10.953Z,93523
2019-02-02T11:02:20.493Z,93526
2019-02-02T11:03:30.040Z,93522
2019-02-02T11:04:39.794Z,93527
2019-02-02T11:05:49.300Z,93523
2019-02-02T11:06:58.811Z,93521
2019-02-02T11:08:08.506Z,93516
2019-02-02T11:09:17.913Z,93521
2019-02-02T11:10:27.387Z,93513
2019-02-02T11:11:36.988Z,93504
2019-02-02T11:12:46.624Z,93504
2019-02-02T11:13:56.157Z,93503
2019-02-02T11:15:05.694Z,93510
2019-02-02T11:16:15.226Z,93510
2019-02-02T11:17:24.861Z,93510
2019-02-02T11:18:34.353Z,93509
2019-02-02T11:19:43.960Z,93504
2019-02-02T11:20:53.531Z,93508
2019-02-02T11:22:03.067Z,93506
2019-02-02T11:23:12.722Z,93502
2019-02-02T11:24:22.233Z,93513
2019-02-02T11:25:31.809Z,93511
2019-02-02T11:26:41.457Z,93522
2019-02-02T11:27:51.156Z,93530
2019-02-02T11:29:00.579Z,93525
2019-02-02T11:30:10.147Z,93523
2019-02-02T11:31:19.693Z,93520
2019-02-02T11:32:29.230Z,93517
2019-02-02T11:33:38.774Z,93518
2019-02-02T11:34:48.310Z,93519
2019-02-02T11:35:57.960Z,93519
2019-02-02T11:37:07.523Z,93527
2019-02-02T11:38:17.121Z,93528
2019-02-02T11:39:26.667Z,93528
2019-02-02T11:40:36.247Z,93529
2019-02-02T11:41:46.760Z,93531
2019-02-02T11:42:56.326Z,93532
2019-02-02T11:44:05.890Z,93535
2019-02-02T11:45:15.466Z,93538
2019-02-02T11:46:26.000Z,93535
2019-02-02T11:47:35.532Z,93535
2019-02-02T11:48:45.078Z,93541
2019-02-02T11:49:54.603Z,93541
2019-02-02T11:51:04.241Z,93545
2019-02-02T11:52:13.845Z,93544
2019-02-02T11:53:24.371Z,93547
2019-02-02T11:54:33.893Z,93550
2019-02-02T11:55:43.473Z,93549
2019-02-02T11:56:53.004Z,93556
2019-02-02T11:58:02.548Z,93559
2019-02-02T11:59:12.098Z,93558
2019-02-02T12:00:21.694Z,93557
2019-02-02T12:01:31.213Z,93549
2019-02-02T12:02:49.014Z,93547
2019-02-02T12:03:51.262Z,93543
2019-02-02T12:05:00.783Z,93545
2019-02-02T12:06:10.385Z,93553
2019-02-02T12:07:19.955Z,93558
2019-02-02T12:08:29.476Z,93554
2019-02-02T12:09:39.016Z,93565
2019-02-02T12:10:48.619Z,93569
2019-02-02T12:11:58.153Z,93574
2019-02-02T12:13:07.721Z,93572
2019-02-02T12:14:17.280Z,93573
2019-02-02T12:15:26.853Z,93576
2019-02-02T12:16:36.403Z,93579
2019-02-02T12:17:45.931Z,93581
2019-02-02T12:18:55.473Z,93582
2019-02-02T12:20:05.004Z,93585
2019-02-02T12:21:14.591Z,93582
2019-02-02T12:22:24.123Z,93579
2019-02-02T12:23:33.676Z,93579
2019-02-02T12:24:43.292Z,93580
2019-02-02T12:25:53.289Z,93582
2019-02-02T12:27:02.494Z,93582
2019-02-02T12:28:12.039Z,93582
2019-02-02T12:29:21.581Z,93585
2019-02-02T12:30:31.248Z,93583
2019-02-02T12:31:40.777Z,93585
2019-02-02T12:32:50.377Z,93575
2019-02-02T12:33:59.904Z,93576
2019-02-02T12:35:09.417Z,93575
2019-02-02T12:36:19.026Z,93574
2019-02-02T12:37:28.599Z,93577
2019-02-02T12:38:38.118Z,93576
2019-02-02T12:39:47.678Z,93575
2019-02-02T12:40:59.614Z,93572
2019-02-02T12:42:06.890Z,93578
2019-02-02T12:43:16.491Z,93588
2019-02-02T12:44:26.055Z,93594
2019-02-02T12:45:35.618Z,93595
2019-02-02T12:46:45.242Z,93590
2019-02-02T12:47:54.813Z,93586
2019-02-02T12:49:04.324Z,93583
2019-02-02T12:50:13.820Z,93577
2019-02-02T12:51:23.418Z,93573
2019-02-02T12:52:32.937Z,93575
2019-02-02T12:53:42.477Z,93577
2019-02-02T12:54:52.086Z,93579
2019-02-02T12:56:01.702Z,93583
2019-02-02T12:57:11.301Z,93589
2019-02-02T12:58:20.820Z,93588
2019-02-02T12:59:30.330Z,93584
2019-02-02T13:00:40.862Z,93577
2019-02-02T13:01:50.414Z,93574
2019-02-02T13:02:59.982Z,93575
2019-02-02T13:04:09.589Z,93578
2019-02-02T13:05:19.128Z,93580
2019-02-02T13:06:28.692Z,93581
2019-02-02T13:07:38.212Z,93585
2019-02-02T13:08:47.746Z,93582
2019-02-02T13:09:57.338Z,93580
2019-02-02T13:11:06.915Z,93574
2019-02-02T13:12:16.444Z,93575
2019-02-02T13:13:26.035Z,93570
2019-02-02T13:14:35.600Z,93570
2019-02-02T13:15:45.202Z,93578
2019-02-02T13:16:54.771Z,93581
2019-02-02T13:18:04.336Z,93596
2019-02-02T13:19:14.114Z,93597
2019-02-02T13:20:23.407Z,93600
2019-02-02T13:21:33.948Z,93596
2019-02-02T13:22:43.476Z,93598
2019-02-02T13:23:53.047Z,93593
2019-02-02T13:25:02.619Z,93593
2019-02-02T13:26:12.214Z,93590
2019-02-02T13:27:21.742Z,93591
2019-02-02T13:28:31.315Z,93591
2019-02-02T13:29:40.850Z,93592
2019-02-02T13:30:50.361Z,93588
2019-02-02T13:31:59.965Z,93580
2019-02-02T13:33:09.488Z,93579
2019-02-02T13:34:19.035Z,93573
2019-02-02T13:35:28.640Z,93567
2019-02-02T13:36:38.255Z,93567
2019-02-02T13:37:47.824Z,93563
2019-02-02T13:38:57.355Z,93558
2019-02-02T13:40:06.901Z,93562
2019-02-02T13:41:16.464Z,93568
2019-02-02T13:42:26.060Z,93570
2019-02-02T13:43:35.590Z,93569
2019-02-02T13:44:45.098Z,93570
2019-02-02T13:45:54.620Z,93561
2019-02-02T13:47:04.184Z,93570
2019-02-02T13:48:13.713Z,93569
2019-02-02T13:49:23.279Z,93578
2019-02-02T13:50:32.887Z,93582
2019-02-02T13:51:42.441Z,93578
2019-02-02T13:52:51.979Z,93576
2019-02-02T13:54:01.500Z,93572
2019-02-02T13:55:11.063Z,93572
2019-02-02T13:56:20.613Z,93578
2019-02-02T13:57:30.205Z,93576
2019-02-02T13:58:39.730Z,93574
2019-02-02T13:59:49.244Z,93576
2019-02-02T14:00:58.787Z,93574
2019-02-02T14:02:08.401Z,93580
2019-02-02T14:03:18.957Z,93578
2019-02-02T14:04:28.480Z,93576
2019-02-02T14:05:38.009Z,93583
2019-02-02T14:06:47.625Z,93583
2019-02-02T14:07:59.987Z,93586
2019-02-02T14:09:06.695Z,93584
2019-02-02T14:10:16.231Z,93579
2019-02-02T14:11:25.762Z,93583
2019-02-02T14:12:34.331Z,93584
2019-02-02T14:13:43.849Z,93585
2019-02-02T14:14:53.366Z,93587
2019-02-02T14:16:02.909Z,93590
2019-02-02T14:17:12.493Z,93588
2019-02-02T14:18:22.021Z,93587
2019-02-02T14:19:31.562Z,93591
2019-02-02T14:20:41.080Z,93589
2019-02-02T14:21:50.666Z,93592
2019-02-02T14:23:00.231Z,93595
2019-02-02T14:24:10.810Z,93594
2019-02-02T14:25:20.320Z,93589
2019-02-02T14:26:29.908Z,93590
2019-02-02T14:27:39.498Z,93594
2019-02-02T14:28:49.013Z,93595
2019-02-02T14:29:58.564Z,93595
2019-02-02T14:31:08.083Z,93594
2019-02-02T14:32:17.635Z,93594
2019-02-02T14:33:27.187Z,93596
2019-02-02T14:34:40.079Z,93598
2019-02-02T14:35:46.290Z,93598
2019-02-02T14:36:55.900Z,93598
2019-02-02T14:38:05.492Z,93597
2019-02-02T14:39:14.983Z,93605
2019-02-02T14:40:24.538Z,93602
2019-02-02T14:41:34.060Z,93601
2019-02-02T14:42:43.619Z,93599
2019-02-02T14:43:55.625Z,93603
2019-02-02T14:45:02.735Z,93600
2019-02-02T14:46:12.269Z,93597
2019-02-02T14:47:21.878Z,93596
2019-02-02T14:48:31.400Z,93596
2019-02-02T14:49:40.988Z,93598
2019-02-02T14:50:50.599Z,93601
2019-02-02T14:52:00.185Z,93604
2019-02-02T14:53:09.946Z,93606
2019-02-02T14:54:19.547Z,93610
2019-02-02T14:55:29.324Z,93613